Time;durP1;ratioP1;P1;durP2;ratioP2;P2;SDS_P1;SDS_P2;PMS_P1;PMS_P2;Temp;Humidity;BMP_temperature;BMP_pressure;BME280_temperature;BME280_humidity;BME280_pressure;Samples;Min_cycle;Max_cycle;Signal;HPM_P1;HPM_P2
2024/01/20 00:01:11;;;;;;;25.25;13.70;;;1.20;75.10;;;;;;5067822;28;20044;-51
2024/01/20 00:03:37;;;;;;;23.40;12.43;;;1.20;75.10;;;;;;5059541;28;20112;-50
2024/01/20 00:06:04;;;;;;;21.63;12.95;;;1.20;75.00;;;;;;5060577;28;20056;-53
2024/01/20 00:08:34;;;;;;;23.33;13.23;;;1.20;75.00;;;;;;5061490;28;20660;-51
2024/01/20 00:11:01;;;;;;;25.23;13.38;;;1.20;75.00;;;;;;5063198;28;20049;-53
2024/01/20 00:13:29;;;;;;;24.10;13.55;;;1.20;75.00;;;;;;5065610;28;20048;-52
2024/01/20 00:16:02;;;;;;;26.80;14.15;;;1.10;75.00;;;;;;5066847;28;20087;-51
2024/01/20 00:18:31;;;;;;;22.73;12.63;;;1.10;75.10;;;;;;5065482;28;20044;-50
2024/01/20 00:20:58;;;;;;;25.58;13.75;;;1.20;75.10;;;;;;5068293;28;20037;-53
2024/01/20 00:23:27;;;;;;;25.92;13.75;;;1.10;75.10;;;;;;5062261;28;20490;-50
2024/01/20 00:25:57;;;;;;;26.08;13.85;;;1.10;75.10;;;;;;5065209;28;20036;-53
2024/01/20 00:28:23;;;;;;;22.60;14.05;;;1.10;75.10;;;;;;5062469;28;20050;-50
2024/01/20 00:30:50;;;;;;;26.17;14.38;;;1.00;75.10;;;;;;5062685;28;20098;-51
2024/01/20 00:33:18;;;;;;;23.30;13.02;;;1.00;75.20;;;;;;5059638;28;21826;-53
2024/01/20 00:35:50;;;;;;;21.83;13.10;;;1.00;75.40;;;;;;5068269;28;20094;-52
2024/01/20 00:38:17;;;;;;;24.55;14.75;;;1.00;75.40;;;;;;5070655;28;20040;-50
2024/01/20 00:40:44;;;;;;;26.63;13.63;;;1.00;75.50;;;;;;5051017;28;20106;-50
2024/01/20 00:43:16;;;;;;;30.65;13.93;;;1.00;75.60;;;;;;5063166;28;20059;-51
2024/01/20 00:45:43;;;;;;;30.67;14.50;;;1.10;75.70;;;;;;5067406;28;20036;-54
2024/01/20 00:48:10;;;;;;;23.92;14.23;;;1.10;75.70;;;;;;5070518;28;20048;-53
2024/01/20 00:50:37;;;;;;;26.95;15.13;;;1.10;75.80;;;;;;5067865;28;20041;-52
2024/01/20 00:53:09;;;;;;;;;;;1.20;75.90;;;;;;5064995;28;20115;-50
2024/01/20 00:55:35;;;;;;;28.75;13.98;;;1.20;76.00;;;;;;5052330;28;20333;-51
2024/01/20 00:58:05;;;;;;;22.73;13.45;;;1.20;75.70;;;;;;5070075;28;20110;-53
2024/01/20 01:00:33;;;;;;;23.52;14.20;;;1.30;75.80;;;;;;5066898;28;20063;-52
2024/01/20 01:03:01;;;;;;;24.33;14.48;;;1.30;75.90;;;;;;5063747;28;20563;-51
2024/01/20 01:05:35;;;;;;;23.73;13.25;;;1.30;75.90;;;;;;5059796;28;20043;-51
2024/01/20 01:08:02;;;;;;;26.55;13.10;;;1.30;76.00;;;;;;5057348;28;20048;-50
2024/01/20 01:10:29;;;;;;;25.80;15.18;;;1.40;76.20;;;;;;5064320;28;20118;-50
2024/01/20 01:12:56;;;;;;;24.77;14.00;;;1.40;76.20;;;;;;5052199;28;20067;-51
2024/01/20 01:15:28;;;;;;;26.77;13.93;;;1.40;76.10;;;;;;5056226;28;20494;-54
2024/01/20 01:17:57;;;;;;;17.27;9.20;;;1.40;76.10;;;;;;5063229;28;20037;-52
2024/01/20 01:20:24;;;;;;;23.48;12.73;;;1.50;76.20;;;;;;5057627;28;20485;-50
2024/01/20 01:22:51;;;;;;;26.80;12.32;;;1.50;76.20;;;;;;5061003;28;20052;-50
2024/01/20 01:25:22;;;;;;;27.13;14.88;;;1.50;76.20;;;;;;5063558;28;20044;-53
2024/01/20 01:27:49;;;;;;;24.98;12.68;;;1.60;76.20;;;;;;5062999;28;20043;-51
2024/01/20 01:30:25;;;;;;;24.27;13.00;;;1.70;76.30;;;;;;5066326;28;20094;-54
2024/01/20 01:32:53;;;;;;;19.95;11.68;;;1.60;76.20;;;;;;5063220;28;20051;-52
2024/01/20 01:35:20;;;;;;;27.33;12.75;;;1.60;76.20;;;;;;5064059;28;20036;-54
2024/01/20 01:37:50;;;;;;;24.02;13.65;;;1.70;76.40;;;;;;5069321;28;20039;-50
2024/01/20 01:40:17;;;;;;;27.60;14.48;;;1.70;76.30;;;;;;5067549;28;20128;-50
2024/01/20 01:42:46;;;;;;;24.20;12.80;;;1.80;76.40;;;;;;5064138;28;20093;-50
2024/01/20 01:45:12;;;;;;;27.60;14.80;;;1.70;76.30;;;;;;5067951;28;20131;-52
2024/01/20 01:47:40;;;;;;;31.88;14.88;;;1.80;76.30;;;;;;5060748;28;20045;-52
2024/01/20 01:50:17;;;;;;;27.08;14.20;;;1.80;76.40;;;;;;5068448;28;20414;-49
2024/01/20 01:52:47;;;;;;;25.00;13.27;;;1.80;76.30;;;;;;5058300;28;20525;-50
2024/01/20 01:55:18;;;;;;;23.70;13.70;;;1.80;76.30;;;;;;5069441;28;20036;-53
2024/01/20 01:57:53;;;;;;;25.52;14.02;;;1.80;76.30;;;;;;5068254;28;20032;-52
2024/01/20 02:00:25;;;;;;;25.23;13.25;;;1.80;76.30;;;;;;5063840;28;20091;-50
2024/01/20 02:02:52;;;;;;;23.10;12.55;;;1.80;76.30;;;;;;5061796;28;20036;-50
2024/01/20 02:05:19;;;;;;;25.30;12.88;;;1.80;76.30;;;;;;5060230;28;20052;-52
2024/01/20 02:07:52;;;;;;;23.48;12.73;;;1.80;76.50;;;;;;5056320;28;20120;-50
2024/01/20 02:10:19;;;;;;;17.90;9.75;;;1.90;76.40;;;;;;5057028;28;20902;-53
2024/01/20 02:12:47;;;;;;;27.35;13.70;;;1.90;76.40;;;;;;5059788;28;20087;-51
2024/01/20 02:15:26;;;;;;;26.45;14.35;;;1.90;76.40;;;;;;5057204;28;20047;-54
2024/01/20 02:18:03;;;;;;;26.33;14.15;;;1.90;76.60;;;;;;5062726;28;20433;-52
2024/01/20 02:20:30;;;;;;;23.60;13.43;;;1.90;76.60;;;;;;5067118;28;20036;-52
2024/01/20 02:23:06;;;;;;;27.65;14.48;;;1.90;76.60;;;;;;5059596;28;20091;-52
2024/01/20 02:25:35;;;;;;;27.70;14.63;;;1.90;76.60;;;;;;5063027;28;20142;-53
2024/01/20 02:28:02;;;;;;;23.88;15.27;;;1.90;76.60;;;;;;5059749;28;20083;-51
2024/01/20 02:30:31;;;;;;;27.30;14.90;;;2.00;76.50;;;;;;5064698;28;20053;-48
2024/01/20 02:33:10;;;;;;;;;;;;;;;;;;;;;
2024/01/20 02:35:38;;;;;;;33.80;15.85;;;2.00;76.40;;;;;;5065214;28;20036;-49
2024/01/20 02:38:04;;;;;;;25.77;14.45;;;2.00;76.40;;;;;;5069181;28;20116;-53
2024/01/20 02:40:31;;;;;;;30.95;15.68;;;2.00;76.40;;;;;;5068021;28;20057;-52
2024/01/20 02:42:58;;;;;;;30.67;15.10;;;2.00;76.40;;;;;;5062755;28;20082;-49
2024/01/20 02:45:24;;;;;;;28.20;14.93;;;2.00;76.30;;;;;;5064053;28;20055;-49
2024/01/20 02:47:58;;;;;;;25.10;14.15;;;2.00;76.20;;;;;;5052550;28;20080;-54
2024/01/20 02:50:25;;;;;;;30.50;14.82;;;2.10;76.20;;;;;;5071565;28;20071;-51
2024/01/20 02:52:55;;;;;;;27.38;13.93;;;2.10;76.10;;;;;;5093338;23;20119;-52
2024/01/20 02:55:25;;;;;;;27.40;13.68;;;2.10;76.10;;;;;;5092442;28;20040;-48
2024/01/20 02:57:53;;;;;;;27.15;13.73;;;2.10;76.00;;;;;;5092445;28;20537;-52
2024/01/20 03:00:21;;;;;;;27.48;13.82;;;2.10;76.00;;;;;;5092321;28;20465;-52
2024/01/20 03:02:50;;;;;;;27.35;13.63;;;2.10;76.10;;;;;;5095819;28;20577;-49
2024/01/20 03:05:17;;;;;;;21.95;13.52;;;2.10;76.10;;;;;;5093951;28;20048;-52
2024/01/20 03:07:44;;;;;;;31.00;15.38;;;2.10;76.20;;;;;;5094750;28;20036;-52
2024/01/20 03:10:17;;;;;;;25.58;16.17;;;2.10;76.20;;;;;;5098085;28;20565;-49
2024/01/20 03:12:44;;;;;;;24.92;13.52;;;2.10;76.10;;;;;;5104930;28;20097;-52
2024/01/20 03:15:14;;;;;;;29.55;13.45;;;2.10;76.20;;;;;;5099512;28;20503;-50
2024/01/20 03:17:42;;;;;;;28.02;14.65;;;2.10;76.10;;;;;;5091941;28;20047;-50
2024/01/20 03:20:13;;;;;;;25.17;12.93;;;2.10;76.10;;;;;;5091779;28;20058;-52
2024/01/20 03:22:42;;;;;;;28.88;15.48;;;2.10;76.10;;;;;;5091925;28;20039;-49
2024/01/20 03:25:08;;;;;;;23.33;13.32;;;2.10;76.10;;;;;;5091912;28;20063;-53
2024/01/20 03:27:35;;;;;;;26.98;13.73;;;2.10;76.00;;;;;;5092181;28;20035;-50
2024/01/20 03:30:04;;;;;;;27.02;14.70;;;2.10;76.00;;;;;;5090850;28;20040;-53
2024/01/20 03:32:33;;;;;;;29.33;14.35;;;2.10;76.10;;;;;;5093961;28;20104;-51
2024/01/20 03:35:10;;;;;;;24.88;13.20;;;2.10;76.10;;;;;;5091970;28;20039;-51
2024/01/20 03:37:36;;;;;;;23.38;13.27;;;2.10;76.10;;;;;;5094736;28;20048;-51
2024/01/20 03:40:06;;;;;;;22.90;13.98;;;2.10;76.10;;;;;;5095582;27;20105;-50
2024/01/20 03:42:35;;;;;;;26.90;13.70;;;2.10;76.10;;;;;;5096237;28;20066;-49
2024/01/20 03:45:03;;;;;;;22.52;13.05;;;2.10;76.20;;;;;;5098085;28;20054;-50
2024/01/20 03:47:31;;;;;;;25.23;12.90;;;2.00;76.20;;;;;;5091759;28;20480;-51
2024/01/20 03:50:05;;;;;;;25.52;13.73;;;2.00;76.20;;;;;;5090223;28;20131;-49
2024/01/20 03:52:32;;;;;;;23.15;13.15;;;2.00;76.20;;;;;;5091171;28;20040;-50
2024/01/20 03:54:59;;;;;;;25.30;14.20;;;2.00;76.30;;;;;;5101013;28;20154;-53
2024/01/20 03:57:25;;;;;;;27.45;13.80;;;2.00;76.40;;;;;;5090104;28;20119;-53
2024/01/20 03:59:58;;;;;;;26.75;13.25;;;2.00;76.40;;;;;;5100111;28;20031;-52
2024/01/20 04:02:30;;;;;;;27.08;14.05;;;2.20;76.60;;;;;;5092167;28;20036;-53
2024/01/20 04:05:01;;;;;;;26.30;13.70;;;2.00;76.50;;;;;;5101649;28;20040;-51
2024/01/20 04:07:33;;;;;;;27.05;13.80;;;2.10;76.50;;;;;;5103607;28;20042;-51
2024/01/20 04:10:01;;;;;;;25.17;13.57;;;2.20;76.50;;;;;;5095484;28;20109;-49
2024/01/20 04:12:28;;;;;;;25.15;13.80;;;2.10;76.50;;;;;;5098294;28;20040;-52
2024/01/20 04:14:59;;;;;;;24.23;12.50;;;2.10;76.50;;;;;;5101683;28;20046;-53
2024/01/20 04:17:28;;;;;;;26.48;14.88;;;2.00;76.50;;;;;;5095319;28;20048;-49
2024/01/20 04:19:55;;;;;;;23.30;12.55;;;2.00;76.50;;;;;;5089531;28;20036;-50
2024/01/20 04:22:24;;;;;;;23.92;13.23;;;2.10;77.20;;;;;;5101518;28;20067;-53
2024/01/20 04:24:52;;;;;;;24.65;12.82;;;2.10;76.60;;;;;;5087177;28;20048;-54
2024/01/20 04:27:18;;;;;;;26.88;13.65;;;2.00;76.60;;;;;;5098260;28;20478;-53
2024/01/20 04:29:45;;;;;;;25.55;14.35;;;2.00;76.70;;;;;;5102616;28;20113;-49
2024/01/20 04:32:14;;;;;;;29.23;13.45;;;2.00;76.70;;;;;;5088323;28;20040;-50
2024/01/20 04:34:41;;;;;;;25.50;13.45;;;2.10;76.80;;;;;;5099983;28;20404;-49
2024/01/20 04:37:08;;;;;;;24.42;13.88;;;2.00;76.70;;;;;;5094384;28;20036;-50
2024/01/20 04:39:34;;;;;;;25.88;14.63;;;2.10;76.70;;;;;;5090803;28;20043;-52
2024/01/20 04:42:02;;;;;;;29.58;13.65;;;2.00;76.70;;;;;;5099065;28;20474;-54
2024/01/20 04:44:30;;;;;;;33.63;15.00;;;2.10;76.80;;;;;;5099501;28;20040;-49
2024/01/20 04:46:57;;;;;;;24.63;14.00;;;2.20;77.00;;;;;;5091050;28;20133;-52
2024/01/20 04:49:24;;;;;;;30.25;14.10;;;2.10;76.80;;;;;;5097600;28;20044;-52
2024/01/20 04:51:53;;;;;;;26.75;14.77;;;2.10;76.80;;;;;;5100790;28;20043;-49
2024/01/20 04:54:20;;;;;;;28.05;14.48;;;2.10;76.90;;;;;;5094538;28;20044;-53
2024/01/20 04:56:46;;;;;;;26.15;13.73;;;2.10;76.90;;;;;;5101403;28;20040;-49
2024/01/20 04:59:13;;;;;;;24.63;13.50;;;2.10;76.90;;;;;;5099166;28;20119;-53
2024/01/20 05:01:48;;;;;;;25.50;14.10;;;2.00;76.90;;;;;;5091212;28;20039;-53
2024/01/20 05:04:16;;;;;;;29.30;15.23;;;2.10;76.90;;;;;;5098175;28;20040;-51
2024/01/20 05:06:48;;;;;;;29.17;15.93;;;2.10;76.90;;;;;;5101436;28;20063;-52
2024/01/20 05:09:21;;;;;;;32.07;17.13;;;2.10;76.90;;;;;;5097163;28;20048;-50
2024/01/20 05:11:51;;;;;;;32.55;16.27;;;2.10;76.90;;;;;;5094805;28;20074;-52
2024/01/20 05:14:22;;;;;;;35.63;16.35;;;2.10;76.80;;;;;;5099082;28;20101;-51
2024/01/20 05:16:49;;;;;;;28.10;14.55;;;2.10;76.80;;;;;;5089837;28;20119;-49
2024/01/20 05:19:17;;;;;;;32.72;15.93;;;2.10;76.80;;;;;;5099460;28;20042;-50
2024/01/20 05:21:45;;;;;;;33.05;15.20;;;2.10;76.90;;;;;;5100030;28;20031;-49
2024/01/20 05:24:18;;;;;;;39.65;17.30;;;2.20;77.00;;;;;;5088408;28;20059;-49
2024/01/20 05:26:50;;;;;;;33.63;17.17;;;2.20;76.90;;;;;;5097588;28;20067;-49
2024/01/20 05:29:22;;;;;;;32.38;15.65;;;2.10;76.80;;;;;;5099019;28;20072;-51
2024/01/20 05:31:52;;;;;;;35.22;16.85;;;2.10;76.90;;;;;;5089771;28;20055;-49
2024/01/20 05:34:22;;;;;;;33.20;16.20;;;2.30;76.90;;;;;;5098329;28;20050;-49
2024/01/20 05:36:52;;;;;;;33.88;15.70;;;2.10;76.80;;;;;;5099837;28;20107;-51
2024/01/20 05:39:22;;;;;;;34.20;16.90;;;2.20;76.90;;;;;;5096314;28;20045;-52
2024/01/20 05:41:49;;;;;;;35.90;16.02;;;2.20;76.90;;;;;;5097136;28;20080;-48
2024/01/20 05:44:19;;;;;;;30.00;15.50;;;2.20;76.90;;;;;;5098234;28;20071;-51
2024/01/20 05:46:46;;;;;;;29.90;15.43;;;2.20;76.80;;;;;;5097296;28;20437;-50
2024/01/20 05:49:15;;;;;;;28.67;16.10;;;2.10;76.80;;;;;;5087357;28;20080;-52
2024/01/20 05:51:42;;;;;;;32.08;16.73;;;2.10;76.80;;;;;;5093822;28;20040;-49
2024/01/20 05:54:09;;;;;;;29.73;15.68;;;2.10;76.80;;;;;;5097748;28;20063;-50
2024/01/20 05:56:38;;;;;;;34.05;16.75;;;2.10;76.80;;;;;;5092547;28;20123;-50
2024/01/20 05:59:07;;;;;;;29.98;16.02;;;2.10;76.80;;;;;;5096413;28;20051;-52
2024/01/20 06:01:34;;;;;;;27.77;15.57;;;2.10;76.80;;;;;;5090910;28;20463;-49
2024/01/20 06:04:03;;;;;;;30.95;14.55;;;2.10;76.80;;;;;;5096132;28;20048;-52
2024/01/20 06:06:32;;;;;;;29.83;15.75;;;2.10;76.80;;;;;;5099761;28;20047;-51
2024/01/20 06:09:02;;;;;;;29.45;16.13;;;2.10;76.80;;;;;;5094644;28;20528;-52
2024/01/20 06:11:29;;;;;;;26.77;14.52;;;2.10;76.80;;;;;;5091589;28;20051;-51
2024/01/20 06:13:56;;;;;;;31.20;14.82;;;2.10;76.90;;;;;;5098451;28;20048;-52
2024/01/20 06:16:25;;;;;;;32.83;15.15;;;2.10;77.60;;;;;;5113083;28;20073;-52
2024/01/20 06:18:54;;;;;;;32.20;15.38;;;2.20;77.00;;;;;;5090004;28;20036;-53
2024/01/20 06:21:21;;;;;;;28.13;13.95;;;2.00;76.90;;;;;;5096284;28;20040;-50
2024/01/20 06:23:56;;;;;;;31.92;16.02;;;2.10;76.90;;;;;;5094588;28;20047;-49
2024/01/20 06:26:23;;;;;;;29.50;14.35;;;2.10;76.80;;;;;;5101016;28;20123;-49
2024/01/20 06:28:52;;;;;;;30.48;15.43;;;2.10;76.80;;;;;;5101094;28;20547;-50
2024/01/20 06:31:29;;;;;;;29.27;14.77;;;2.10;77.50;;;;;;5095570;28;20127;-49
2024/01/20 06:33:57;;;;;;;28.35;14.55;;;2.10;76.80;;;;;;5098284;28;20049;-51
2024/01/20 06:36:31;;;;;;;24.70;13.32;;;2.00;76.70;;;;;;5098860;28;20039;-49
2024/01/20 06:39:00;;;;;;;29.23;14.82;;;2.00;76.80;;;;;;5100623;28;20092;-48
2024/01/20 06:41:32;;;;;;;23.92;13.75;;;2.00;76.80;;;;;;5093330;28;20128;-50
2024/01/20 06:44:01;;;;;;;26.23;12.93;;;2.20;76.80;;;;;;5100628;28;20042;-53
2024/01/20 06:46:27;;;;;;;26.95;14.75;;;2.00;76.80;;;;;;5101254;28;20562;-51
2024/01/20 06:48:54;;;;;;;31.55;14.27;;;2.00;76.80;;;;;;5102072;28;20045;-52
2024/01/20 06:51:27;;;;;;;28.23;14.45;;;2.00;76.90;;;;;;5094893;28;20044;-53
2024/01/20 06:53:59;;;;;;;28.15;14.90;;;2.00;77.00;;;;;;5098793;28;20044;-51
2024/01/20 06:56:26;;;;;;;31.08;14.93;;;2.00;77.10;;;;;;5099461;28;20041;-53
2024/01/20 06:58:56;;;;;;;32.42;16.25;;;2.00;77.00;;;;;;5113815;27;20465;-51
2024/01/20 07:01:27;;;;;;;29.70;16.35;;;2.00;76.90;;;;;;5092251;28;20056;-49
2024/01/20 07:03:57;;;;;;;23.23;13.90;;;2.00;77.00;;;;;;5096694;28;20054;-50
2024/01/20 07:06:25;;;;;;;26.60;14.20;;;2.00;77.00;;;;;;5087137;28;20131;-53
2024/01/20 07:08:54;;;;;;;29.15;16.02;;;2.00;76.90;;;;;;5082287;28;20493;-51
2024/01/20 07:11:23;;;;;;;33.90;16.02;;;2.00;76.70;;;;;;5086170;28;20052;-53
2024/01/20 07:13:55;;;;;;;;;;;2.00;76.60;;;;;;5091794;28;20043;-50
2024/01/20 07:16:25;;;;;;;31.13;15.15;;;2.10;76.70;;;;;;5091473;28;20416;-49
2024/01/20 07:18:55;;;;;;;29.27;14.02;;;2.00;76.20;;;;;;5085961;28;20393;-54
2024/01/20 07:21:22;;;;;;;26.35;15.05;;;2.00;76.10;;;;;;5084467;28;20051;-51
2024/01/20 07:23:50;;;;;;;30.05;15.75;;;2.00;76.10;;;;;;5086300;28;20036;-50
2024/01/20 07:26:18;;;;;;;30.17;14.43;;;2.00;76.00;;;;;;5090566;28;20044;-53
2024/01/20 07:28:46;;;;;;;26.88;14.13;;;1.90;76.00;;;;;;5088339;28;20520;-53
2024/01/20 07:31:16;;;;;;;25.83;14.75;;;2.00;76.10;;;;;;5090007;28;20188;-53
2024/01/20 07:33:44;;;;;;;29.35;14.95;;;1.90;76.20;;;;;;5091541;28;20382;-54
2024/01/20 07:36:12;;;;;;;25.75;14.25;;;1.90;76.30;;;;;;5089330;28;20048;-53
2024/01/20 07:38:40;;;;;;;28.45;14.27;;;2.00;76.20;;;;;;5090715;28;20034;-54
2024/01/20 07:41:09;;;;;;;26.45;13.93;;;1.90;76.20;;;;;;5085318;28;20054;-50
2024/01/20 07:43:37;;;;;;;29.50;14.43;;;1.90;76.10;;;;;;5090383;28;20042;-51
2024/01/20 07:46:03;;;;;;;22.30;13.45;;;1.90;76.10;;;;;;5083124;28;20537;-52
2024/01/20 07:48:30;;;;;;;22.27;12.38;;;2.00;76.00;;;;;;5087975;28;20041;-51
2024/01/20 07:50:57;;;;;;;27.58;13.45;;;1.80;76.00;;;;;;5088376;28;20071;-54
2024/01/20 07:53:24;;;;;;;24.42;14.45;;;1.80;76.00;;;;;;5089748;28;20055;-54
2024/01/20 07:55:50;;;;;;;24.02;12.90;;;1.80;75.80;;;;;;5096415;28;20114;-51
2024/01/20 07:58:17;;;;;;;22.92;12.00;;;1.80;75.90;;;;;;5097182;28;20123;-52
2024/01/20 08:00:44;;;;;;;22.33;12.77;;;1.90;75.90;;;;;;5087250;28;20485;-52
2024/01/20 08:03:11;;;;;;;23.70;11.38;;;1.70;75.70;;;;;;5093231;28;20040;-53
2024/01/20 08:05:37;;;;;;;18.83;11.13;;;1.70;75.90;;;;;;5100559;28;20154;-52
2024/01/20 08:08:05;;;;;;;19.80;10.90;;;1.70;75.90;;;;;;5095025;28;20115;-49
2024/01/20 08:10:31;;;;;;;26.52;12.10;;;1.70;75.90;;;;;;5085951;28;20147;-55
2024/01/20 08:12:58;;;;;;;23.15;12.85;;;1.70;76.00;;;;;;5092727;28;20112;-53
2024/01/20 08:15:25;;;;;;;20.60;12.40;;;1.70;76.00;;;;;;5090272;28;20104;-54
2024/01/20 08:17:52;;;;;;;21.52;10.95;;;1.70;76.10;;;;;;5087668;28;20055;-52
2024/01/20 08:20:18;;;;;;;21.27;11.93;;;1.70;76.40;;;;;;5088758;28;20044;-52
2024/01/20 08:22:45;;;;;;;19.67;11.80;;;1.70;76.60;;;;;;5087750;28;20047;-52
2024/01/20 08:25:13;;;;;;;20.70;11.73;;;1.80;76.60;;;;;;5094967;28;20072;-54
2024/01/20 08:27:40;;;;;;;20.73;12.38;;;1.80;76.30;;;;;;5088741;28;20051;-54
2024/01/20 08:30:07;;;;;;;19.40;11.68;;;1.90;76.00;;;;;;5087653;28;20105;-52
2024/01/20 08:32:34;;;;;;;19.90;13.02;;;1.90;75.40;;;;;;5081780;28;20550;-52
2024/01/20 08:35:01;;;;;;;18.55;11.43;;;1.90;74.90;;;;;;5092044;28;20099;-53
2024/01/20 08:37:28;;;;;;;19.88;11.40;;;1.90;74.60;;;;;;5092558;28;20085;-53
2024/01/20 08:39:57;;;;;;;18.88;12.15;;;1.90;74.20;;;;;;5098787;28;20120;-50
2024/01/20 08:42:25;;;;;;;17.30;10.70;;;1.90;73.90;;;;;;5090240;28;20043;-54
2024/01/20 08:44:55;;;;;;;21.23;11.77;;;1.80;73.50;;;;;;5097829;28;20439;-52
2024/01/20 08:47:22;;;;;;;20.42;11.10;;;1.70;73.30;;;;;;5090735;28;20543;-50
2024/01/20 08:49:51;;;;;;;18.10;10.95;;;1.70;73.20;;;;;;5089289;28;20549;-54
2024/01/20 08:52:18;;;;;;;18.42;11.77;;;1.60;73.10;;;;;;5095617;28;20048;-52
2024/01/20 08:54:45;;;;;;;19.50;10.55;;;1.50;73.00;;;;;;5096533;28;20116;-52
2024/01/20 08:57:12;;;;;;;19.23;11.30;;;1.60;73.00;;;;;;5090269;28;20040;-52
2024/01/20 08:59:39;;;;;;;22.20;12.38;;;1.50;72.90;;;;;;5094687;28;20036;-54
2024/01/20 09:02:06;;;;;;;18.75;11.63;;;1.40;72.70;;;;;;5087550;28;20757;-51
2024/01/20 09:04:33;;;;;;;18.63;10.60;;;1.30;72.70;;;;;;5090285;28;20495;-51
2024/01/20 09:07:00;;;;;;;16.88;11.52;;;1.30;72.80;;;;;;5096532;28;20042;-49
2024/01/20 09:09:27;;;;;;;23.45;10.90;;;1.20;72.80;;;;;;5092694;28;20074;-53
2024/01/20 09:11:54;;;;;;;17.17;10.45;;;1.20;72.80;;;;;;5099172;22;20056;-56
2024/01/20 09:14:21;;;;;;;20.13;11.63;;;1.10;72.80;;;;;;5095369;28;20040;-56
2024/01/20 09:16:48;;;;;;;21.20;12.23;;;1.10;72.90;;;;;;5091388;28;20043;-56
2024/01/20 09:19:15;;;;;;;21.17;11.35;;;1.10;72.90;;;;;;5089267;28;20097;-56
2024/01/20 09:21:46;;;;;;;18.90;11.27;;;1.10;72.90;;;;;;5088903;28;20990;-53
2024/01/20 09:24:13;;;;;;;17.90;10.93;;;1.10;72.80;;;;;;5096049;28;20075;-54
2024/01/20 09:26:40;;;;;;;18.00;12.43;;;1.10;72.80;;;;;;5097504;28;20101;-56
2024/01/20 09:29:08;;;;;;;19.90;11.55;;;1.10;72.90;;;;;;5086927;28;20036;-52
2024/01/20 09:31:35;;;;;;;21.52;11.20;;;1.10;72.80;;;;;;5089521;28;20044;-56
2024/01/20 09:34:02;;;;;;;18.98;11.60;;;1.10;72.80;;;;;;5091071;28;20051;-56
2024/01/20 09:36:30;;;;;;;17.33;10.45;;;1.10;72.80;;;;;;5093943;28;20048;-55
2024/01/20 09:39:04;;;;;;;17.48;11.57;;;1.30;72.70;;;;;;5089779;28;20047;-56
2024/01/20 09:41:32;;;;;;;17.60;10.82;;;1.20;72.60;;;;;;5093571;28;20048;-54
2024/01/20 09:44:00;;;;;;;20.10;12.65;;;1.10;72.50;;;;;;5093833;28;20056;-56
2024/01/20 09:46:30;;;;;;;21.23;10.80;;;1.20;72.40;;;;;;5093584;28;20472;-56
2024/01/20 09:49:02;;;;;;;20.27;12.75;;;1.20;72.30;;;;;;5087866;28;20047;-57
2024/01/20 09:51:29;;;;;;;20.33;11.05;;;1.20;72.10;;;;;;5091998;28;20043;-54
2024/01/20 09:53:59;;;;;;;17.13;9.63;;;1.20;72.10;;;;;;5096359;28;20036;-57
2024/01/20 09:56:31;;;;;;;17.60;11.00;;;1.20;72.10;;;;;;5092006;28;20036;-56
2024/01/20 09:59:05;;;;;;;20.75;11.75;;;1.20;72.10;;;;;;5097805;28;20042;-56
2024/01/20 10:01:33;;;;;;;18.95;11.48;;;1.30;72.00;;;;;;5095178;28;20043;-54
2024/01/20 10:04:04;;;;;;;21.13;10.55;;;1.30;72.00;;;;;;5097800;28;20039;-57
2024/01/20 10:06:34;;;;;;;20.10;11.35;;;1.30;71.90;;;;;;5099324;28;20070;-55
2024/01/20 10:09:01;;;;;;;16.38;11.45;;;1.40;72.00;;;;;;5096400;28;20127;-57
2024/01/20 10:11:28;;;;;;;18.92;10.45;;;1.40;72.00;;;;;;5083936;28;20636;-53
2024/01/20 10:13:55;;;;;;;15.00;9.68;;;1.50;71.90;;;;;;5100238;28;20042;-57
2024/01/20 10:16:24;;;;;;;21.55;11.02;;;1.50;71.70;;;;;;5096764;28;20063;-53
2024/01/20 10:18:53;;;;;;;18.30;11.05;;;1.50;71.60;;;;;;5097555;28;20040;-57
2024/01/20 10:21:23;;;;;;;19.45;9.82;;;1.50;71.50;;;;;;5097415;28;20125;-56
2024/01/20 10:23:50;;;;;;;16.38;9.88;;;1.60;71.40;;;;;;5099936;28;20501;-53
2024/01/20 10:26:17;;;;;;;20.15;11.60;;;1.60;71.40;;;;;;5097836;28;20067;-56
2024/01/20 10:28:47;;;;;;;18.92;11.27;;;1.70;71.40;;;;;;5095589;28;20501;-56
2024/01/20 10:31:16;;;;;;;18.40;10.52;;;1.70;71.20;;;;;;5094231;28;20055;-55
2024/01/20 10:33:48;;;;;;;17.25;9.98;;;1.70;71.00;;;;;;5095817;28;20078;-56
2024/01/20 10:36:33;;;;;;;19.75;11.82;;;1.80;71.00;;;;;;5097529;28;20047;-55
2024/01/20 10:39:04;;;;;;;17.95;10.10;;;1.80;71.00;;;;;;5097808;28;20602;-57
2024/01/20 10:41:33;;;;;;;;;;;1.80;71.00;;;;;;5094812;28;20545;-56
2024/01/20 10:44:04;;;;;;;16.38;9.35;;;1.90;70.30;;;;;;5093850;28;20428;-55
2024/01/20 10:46:39;;;;;;;13.80;8.50;;;1.90;70.90;;;;;;5090492;28;20094;-56
2024/01/20 10:49:10;;;;;;;17.05;9.43;;;1.90;70.60;;;;;;5097094;28;20040;-53
2024/01/20 10:51:42;;;;;;;15.48;8.98;;;1.90;70.60;;;;;;5097513;28;20118;-57
2024/01/20 10:54:10;;;;;;;14.55;10.57;;;1.90;70.60;;;;;;5096199;28;20128;-55
2024/01/20 10:56:41;;;;;;;16.00;10.25;;;1.90;70.50;;;;;;5095433;28;20043;-55
2024/01/20 10:59:17;;;;;;;14.13;9.85;;;2.00;70.50;;;;;;5090041;28;20094;-57
2024/01/20 11:01:45;;;;;;;13.65;9.75;;;2.00;70.10;;;;;;5094394;28;20048;-55
2024/01/20 11:04:22;;;;;;;15.38;9.07;;;2.00;70.10;;;;;;5094853;28;20052;-56
2024/01/20 11:06:50;;;;;;;15.43;9.95;;;2.10;70.00;;;;;;5096798;28;20436;-57
2024/01/20 11:09:22;;;;;;;9.10;5.97;;;2.10;69.80;;;;;;5096336;28;20098;-57
2024/01/20 11:12:01;;;;;;;13.45;8.40;;;2.10;69.70;;;;;;5107765;27;20127;-56
2024/01/20 11:14:29;;;;;;;11.93;7.63;;;2.20;69.40;;;;;;5094928;28;20056;-56
2024/01/20 11:17:08;;;;;;;15.00;8.25;;;2.20;69.70;;;;;;5096352;28;20405;-57
2024/01/20 11:19:34;;;;;;;13.93;9.10;;;2.30;69.70;;;;;;5109253;27;20391;-53
2024/01/20 11:22:01;;;;;;;14.02;8.23;;;2.30;69.60;;;;;;5094799;28;20554;-57
2024/01/20 11:24:42;;;;;;;12.82;8.43;;;2.30;69.40;;;;;;5094500;28;20047;-53
2024/01/20 11:27:09;;;;;;;13.00;8.15;;;2.40;68.80;;;;;;5086388;28;20093;-55
2024/01/20 11:29:36;;;;;;;11.52;7.63;;;2.40;69.30;;;;;;5095441;28;20068;-53
2024/01/20 11:32:03;;;;;;;13.55;8.95;;;2.50;69.10;;;;;;5092339;28;20036;-56
2024/01/20 11:34:30;;;;;;;16.05;9.65;;;2.50;68.90;;;;;;5095209;28;20502;-57
2024/01/20 11:37:00;;;;;;;12.95;8.13;;;2.60;68.90;;;;;;5095510;28;20570;-55
2024/01/20 11:39:27;;;;;;;10.23;7.50;;;2.60;68.70;;;;;;5087244;28;20032;-56
2024/01/20 11:42:03;;;;;;;12.05;8.38;;;2.70;68.70;;;;;;5092692;28;20452;-56
2024/01/20 11:44:32;;;;;;;16.05;9.30;;;2.70;68.20;;;;;;5094196;28;20044;-57
2024/01/20 11:46:59;;;;;;;13.45;8.50;;;2.80;68.60;;;;;;5092942;28;20035;-57
2024/01/20 11:49:26;;;;;;;12.70;8.27;;;2.90;68.40;;;;;;5080725;28;20040;-56
2024/01/20 11:51:53;;;;;;;14.65;7.68;;;2.90;68.30;;;;;;5087488;28;20053;-57
2024/01/20 11:54:22;;;;;;;11.98;7.07;;;3.00;68.10;;;;;;5093304;28;20153;-57
2024/01/20 11:56:57;;;;;;;10.77;7.18;;;3.10;67.90;;;;;;5091443;28;20478;-57
2024/01/20 11:59:24;;;;;;;11.30;7.03;;;3.10;67.30;;;;;;5084120;28;20531;-57
2024/01/20 12:01:51;;;;;;;9.32;6.32;;;3.10;67.50;;;;;;5087562;28;20037;-55
2024/01/20 12:04:18;;;;;;;9.38;6.85;;;3.20;67.20;;;;;;5091610;28;20490;-57
2024/01/20 12:06:44;;;;;;;11.07;6.43;;;3.20;66.80;;;;;;5091221;28;20067;-57
2024/01/20 12:09:11;;;;;;;9.30;5.93;;;3.20;66.60;;;;;;5092446;28;20491;-57
2024/01/20 12:11:40;;;;;;;9.73;7.18;;;3.20;66.50;;;;;;5089013;28;20065;-57
2024/01/20 12:14:08;;;;;;;13.18;7.97;;;3.30;66.40;;;;;;5088355;28;20753;-57
2024/01/20 12:16:35;;;;;;;11.20;6.63;;;3.30;66.30;;;;;;5091556;28;20673;-57
2024/01/20 12:19:02;;;;;;;11.02;7.25;;;3.30;66.20;;;;;;5091566;28;20044;-56
2024/01/20 12:21:29;;;;;;;10.88;7.03;;;3.30;65.90;;;;;;5090468;28;20050;-57
2024/01/20 12:23:56;;;;;;;10.90;6.70;;;3.40;65.90;;;;;;5091342;28;20493;-57
2024/01/20 12:26:23;;;;;;;11.93;7.38;;;3.40;65.80;;;;;;5089945;28;20047;-57
2024/01/20 12:28:52;;;;;;;14.23;6.82;;;3.40;65.50;;;;;;5089632;28;20085;-57
2024/01/20 12:31:20;;;;;;;14.38;7.10;;;3.50;65.40;;;;;;5089117;28;20584;-56
2024/01/20 12:33:49;;;;;;;11.75;6.80;;;3.50;65.60;;;;;;5091873;28;20047;-55
2024/01/20 12:36:16;;;;;;;11.43;7.30;;;3.50;65.40;;;;;;5091242;28;20049;-56
2024/01/20 12:38:43;;;;;;;9.85;6.78;;;3.50;65.40;;;;;;5090316;28;20051;-57
2024/01/20 12:41:10;;;;;;;10.40;7.30;;;3.60;65.50;;;;;;5090722;28;20877;-57
2024/01/20 12:43:37;;;;;;;10.85;6.05;;;3.60;65.30;;;;;;5091175;28;20081;-57
2024/01/20 12:46:04;;;;;;;8.23;5.95;;;3.70;65.20;;;;;;5090535;28;20408;-57
2024/01/20 12:48:31;;;;;;;9.80;6.38;;;3.70;65.20;;;;;;5092943;28;20063;-56